createdAt,value
2023-11-09T00:01:14.101Z,6.82
2023-11-09T00:04:17.391Z,10.18
2023-11-09T00:07:20.663Z,14.93
2023-11-09T00:10:22.821Z,9.20
2023-11-09T00:13:25.239Z,10.90
2023-11-09T00:16:27.105Z,10.80
2023-11-09T00:19:30.328Z,10.88
2023-11-09T00:22:34.450Z,13.57
2023-11-09T00:25:36.739Z,10.88
2023-11-09T00:28:38.548Z,10.40
2023-11-09T00:31:41.103Z,10.50
2023-11-09T00:34:45.440Z,12.10
2023-11-09T00:37:48.054Z,9.43
2023-11-09T00:40:50.053Z,7.65
2023-11-09T00:43:57.130Z,9.93
2023-11-09T00:47:00.988Z,9.55
2023-11-09T00:50:04.710Z,6.72
2023-11-09T00:53:06.934Z,6.85
2023-11-09T00:56:09.213Z,9.82
2023-11-09T00:59:10.986Z,8.27
2023-11-09T01:02:13.089Z,9.98
2023-11-09T01:05:16.858Z,5.68
2023-11-09T01:08:18.715Z,7.60
2023-11-09T01:11:24.042Z,7.47
2023-11-09T01:14:25.912Z,7.88
2023-11-09T01:17:28.954Z,7.38
2023-11-09T01:20:33.698Z,6.80
2023-11-09T01:23:35.613Z,3.78
2023-11-09T01:26:37.443Z,2.92
2023-11-09T01:29:40.328Z,7.90
2023-11-09T01:32:42.597Z,8.82
2023-11-09T01:35:46.191Z,9.32
2023-11-09T01:38:48.050Z,11.15
2023-11-09T01:41:51.195Z,11.02
2023-11-09T01:44:52.973Z,11.68
2023-11-09T01:47:55.392Z,11.95
2023-11-09T01:50:58.593Z,11.18
2023-11-09T01:54:00.657Z,10.98
2023-11-09T01:57:04.403Z,8.98
2023-11-09T02:00:07.963Z,10.07
2023-11-09T02:03:13.024Z,8.88
2023-11-09T02:06:19.557Z,9.90
2023-11-09T02:09:22.202Z,10.32
2023-11-09T02:12:24.109Z,7.68
2023-11-09T02:15:26.864Z,7.03
2023-11-09T02:18:29.202Z,8.90
2023-11-09T02:21:34.570Z,9.70
2023-11-09T02:24:37.982Z,9.13
2023-11-09T02:27:40.717Z,12.65
2023-11-09T02:30:43.151Z,13.82
2023-11-09T02:33:45.732Z,12.88
2023-11-09T02:36:48.452Z,10.30
2023-11-09T02:39:54.414Z,8.13
2023-11-09T02:42:56.266Z,10.40
2023-11-09T02:45:59.125Z,8.88
2023-11-09T02:49:01.968Z,8.00
2023-11-09T02:52:04.211Z,12.35
2023-11-09T02:55:08.561Z,8.85
2023-11-09T02:58:10.464Z,9.65
2023-11-09T03:01:12.326Z,11.82
2023-11-09T03:04:15.458Z,13.75
2023-11-09T03:07:17.369Z,10.63
2023-11-09T03:10:21.661Z,10.30
2023-11-09T03:13:23.611Z,12.73
2023-11-09T03:16:25.720Z,12.75
2023-11-09T03:19:27.637Z,14.85
2023-11-09T03:22:31.343Z,12.48
2023-11-09T03:25:34.594Z,12.73
2023-11-09T03:28:39.221Z,14.45
2023-11-09T03:31:41.822Z,11.15
2023-11-09T03:34:43.688Z,15.43
2023-11-09T03:37:45.513Z,13.55
2023-11-09T03:40:48.965Z,10.48
2023-11-09T03:43:50.783Z,12.80
2023-11-09T03:46:53.534Z,12.73
2023-11-09T03:49:55.340Z,16.90
2023-11-09T03:52:57.480Z,13.15
2023-11-09T03:56:00.681Z,13.50
2023-11-09T03:59:03.559Z,14.00
2023-11-09T04:02:05.410Z,14.55
2023-11-09T04:05:11.306Z,15.43
2023-11-09T04:08:13.189Z,12.35
2023-11-09T04:11:16.800Z,10.73
2023-11-09T04:14:18.655Z,10.27
2023-11-09T04:17:21.471Z,13.95
2023-11-09T04:20:23.972Z,12.65
2023-11-09T04:23:27.016Z,11.68
2023-11-09T04:26:33.817Z,12.40
2023-11-09T04:29:36.425Z,11.13
2023-11-09T04:32:39.446Z,9.13
2023-11-09T04:35:45.447Z,14.40
2023-11-09T04:41:51.219Z,12.35
2023-11-09T04:44:58.023Z,17.27
2023-11-09T04:48:08.549Z,10.68
2023-11-09T04:51:10.420Z,9.40
2023-11-09T04:54:20.988Z,11.38
2023-11-09T04:57:46.971Z,13.35
2023-11-09T05:01:07.759Z,10.73
2023-11-09T05:04:28.262Z,11.80
2023-11-09T05:07:30.338Z,11.90
2023-11-09T05:10:32.379Z,10.90
2023-11-09T05:13:35.670Z,8.10
2023-11-09T05:16:39.220Z,12.82
2023-11-09T05:19:41.206Z,10.10
2023-11-09T05:22:43.333Z,10.40
2023-11-09T05:25:46.290Z,11.05
2023-11-09T05:28:50.083Z,10.95
2023-11-09T05:31:52.591Z,10.95
2023-11-09T05:34:55.221Z,9.77
2023-11-09T05:37:57.341Z,11.60
2023-11-09T05:41:00.094Z,10.15
2023-11-09T05:44:03.935Z,11.20
2023-11-09T05:47:05.869Z,9.55
2023-11-09T05:50:09.350Z,8.52
2023-11-09T05:53:11.356Z,9.65
2023-11-09T05:56:15.182Z,10.45
2023-11-09T05:59:18.800Z,10.20
2023-11-09T06:02:20.673Z,9.48
2023-11-09T06:05:26.132Z,11.95
2023-11-09T06:08:28.039Z,10.25
2023-11-09T06:11:33.167Z,10.77
2023-11-09T06:14:39.742Z,10.73
2023-11-09T06:17:41.622Z,9.65
2023-11-09T06:20:45.442Z,8.48
2023-11-09T06:23:47.267Z,8.98
2023-11-09T06:26:51.001Z,9.98
2023-11-09T06:29:54.517Z,10.95
2023-11-09T06:32:56.501Z,9.52
2023-11-09T06:36:00.262Z,10.13
2023-11-09T06:39:02.421Z,10.15
2023-11-09T06:42:05.169Z,8.88
2023-11-09T06:45:10.480Z,8.60
2023-11-09T06:48:13.455Z,10.73
2023-11-09T06:51:15.341Z,9.55
2023-11-09T06:54:18.037Z,10.20
2023-11-09T06:57:20.086Z,7.88
2023-11-09T07:00:24.969Z,8.77
2023-11-09T07:03:26.808Z,16.08
2023-11-09T07:06:29.588Z,19.23
2023-11-09T07:09:31.456Z,22.25
2023-11-09T07:12:34.244Z,22.85
2023-11-09T07:15:40.568Z,21.65
2023-11-09T07:18:43.168Z,22.60
2023-11-09T07:21:45.066Z,22.88
2023-11-09T07:24:52.512Z,22.48
2023-11-09T07:27:57.138Z,23.80
2023-11-09T07:31:02.608Z,21.23
2023-11-09T07:34:04.834Z,18.50
2023-11-09T07:37:07.527Z,16.60
2023-11-09T07:40:11.674Z,17.17
2023-11-09T07:43:13.801Z,12.30
2023-11-09T07:46:17.027Z,15.35
2023-11-09T07:49:19.073Z,13.23
2023-11-09T07:52:21.956Z,13.60
2023-11-09T07:55:23.894Z,11.75
2023-11-09T07:58:25.708Z,10.88
2023-11-09T08:01:28.962Z,23.65
2023-11-09T08:04:30.796Z,14.60
2023-11-09T08:07:32.617Z,15.50
2023-11-09T08:10:36.441Z,23.40
2023-11-09T08:13:38.279Z,17.80
2023-11-09T08:16:43.079Z,13.93
2023-11-09T08:19:45.017Z,16.95
2023-11-09T08:22:48.097Z,14.18
2023-11-09T08:25:50.137Z,12.63
2023-11-09T08:28:54.146Z,9.57
2023-11-09T08:32:03.437Z,8.95
2023-11-09T08:35:11.535Z,10.88
2023-11-09T08:38:13.351Z,9.77
2023-11-09T08:41:17.159Z,8.23
2023-11-09T08:44:19.777Z,9.93
2023-11-09T08:47:23.062Z,8.15
2023-11-09T08:50:26.326Z,8.85
2023-11-09T08:53:32.536Z,8.18
2023-11-09T08:56:36.529Z,8.75
2023-11-09T08:59:38.747Z,8.00
2023-11-09T09:02:52.715Z,8.70
2023-11-09T09:05:56.834Z,7.82
2023-11-09T09:08:58.988Z,5.72
2023-11-09T09:12:01.395Z,8.20
2023-11-09T09:15:05.295Z,8.90
2023-11-09T09:18:11.209Z,2.90
2023-11-09T09:21:13.721Z,4.55
2023-11-09T09:24:15.635Z,2.78
2023-11-09T09:27:17.577Z,4.22
2023-11-09T09:30:22.695Z,3.65
2023-11-09T09:33:27.282Z,3.03
2023-11-09T09:36:29.232Z,3.17
2023-11-09T09:39:33.019Z,4.72
2023-11-09T09:42:35.096Z,4.38
2023-11-09T09:45:38.657Z,5.93
2023-11-09T09:48:42.346Z,5.82
2023-11-09T09:51:45.368Z,5.38
2023-11-09T09:54:47.557Z,5.32
2023-11-09T09:57:49.549Z,5.03
2023-11-09T10:00:55.522Z,6.20
2023-11-09T10:03:59.773Z,6.20
2023-11-09T10:07:02.091Z,5.60
2023-11-09T10:10:04.404Z,6.45
2023-11-09T10:13:11.512Z,6.57
2023-11-09T10:16:15.797Z,6.13
2023-11-09T10:19:19.190Z,6.53
2023-11-09T10:22:21.667Z,6.03
2023-11-09T10:25:28.738Z,5.63
2023-11-09T10:28:34.051Z,8.45
2023-11-09T10:31:36.388Z,5.10
2023-11-09T10:34:40.039Z,5.97
2023-11-09T10:37:44.523Z,7.90
2023-11-09T10:41:13.976Z,4.82
2023-11-09T10:44:11.613Z,5.20
2023-11-09T10:47:14.950Z,5.75
2023-11-09T10:50:21.986Z,5.05
2023-11-09T10:53:28.152Z,5.50
2023-11-09T10:56:31.308Z,3.58
2023-11-09T10:59:42.018Z,7.32
2023-11-09T11:02:52.710Z,5.20
2023-11-09T11:06:00.558Z,3.53
2023-11-09T11:09:09.867Z,3.88
2023-11-09T11:12:16.992Z,3.83
2023-11-09T11:15:28.603Z,5.43
2023-11-09T11:18:43.581Z,4.28
2023-11-09T11:21:58.963Z,3.95
2023-11-09T11:25:17.460Z,3.05
2023-11-09T11:28:20.224Z,14.10
2023-11-09T11:31:23.271Z,3.70
2023-11-09T11:34:50.619Z,3.00
2023-11-09T11:37:53.984Z,3.58
2023-11-09T11:41:01.521Z,2.83
2023-11-09T11:44:03.426Z,2.60
2023-11-09T11:47:06.865Z,4.32
2023-11-09T11:50:11.827Z,2.53
2023-11-09T11:53:29.693Z,3.90
2023-11-09T11:56:34.783Z,7.50
2023-11-09T11:59:40.233Z,1.92
2023-11-09T12:02:52.879Z,4.25
2023-11-09T12:06:10.910Z,3.42
2023-11-09T12:09:22.491Z,3.33
2023-11-09T12:12:27.875Z,2.22
2023-11-09T12:15:30.340Z,3.08
2023-11-09T12:18:32.234Z,2.00
2023-11-09T12:21:35.663Z,2.42
2023-11-09T12:24:41.635Z,3.70
2023-11-09T12:27:45.770Z,2.35
2023-11-09T12:30:53.001Z,3.15
2023-11-09T12:34:04.847Z,2.47
2023-11-09T12:37:12.967Z,1.65
2023-11-09T12:40:18.426Z,2.05
2023-11-09T12:43:21.323Z,2.30
2023-11-09T12:46:24.649Z,2.33
2023-11-09T12:49:28.865Z,3.33
2023-11-09T12:52:31.417Z,1.38
2023-11-09T12:55:35.433Z,4.05
2023-11-09T12:58:42.011Z,3.17
2023-11-09T13:01:44.799Z,2.58
2023-11-09T13:04:50.536Z,4.20
2023-11-09T13:07:57.533Z,2.25
2023-11-09T13:11:02.684Z,3.92
2023-11-09T13:14:09.693Z,3.58
2023-11-09T13:17:18.233Z,1.63
2023-11-09T13:20:29.469Z,2.47
2023-11-09T13:23:35.969Z,1.50
2023-11-09T13:26:39.307Z,1.60
2023-11-09T13:29:44.651Z,1.42
2023-11-09T13:32:50.627Z,3.55
2023-11-09T13:35:54.047Z,1.67
2023-11-09T13:38:59.113Z,2.15
2023-11-09T13:42:10.173Z,3.42
2023-11-09T13:45:30.231Z,1.77
2023-11-09T13:48:33.045Z,3.97
2023-11-09T13:51:34.910Z,2.50
2023-11-09T13:54:39.802Z,3.20
2023-11-09T13:57:46.363Z,3.53
2023-11-09T14:00:49.055Z,3.45
2023-11-09T14:03:50.874Z,1.85
2023-11-09T14:06:53.119Z,2.08
2023-11-09T14:09:56.070Z,1.88
2023-11-09T14:13:19.535Z,3.53
2023-11-09T14:16:24.629Z,1.77
2023-11-09T14:19:36.433Z,3.42
2023-11-09T14:22:40.694Z,2.03
2023-11-09T14:25:43.401Z,1.98
2023-11-09T14:28:46.648Z,2.42
2023-11-09T14:31:48.538Z,1.00
2023-11-09T14:34:50.506Z,2.97
2023-11-09T14:37:52.868Z,2.65
2023-11-09T14:40:58.053Z,3.53
2023-11-09T14:44:01.287Z,3.13
2023-11-09T14:47:07.772Z,3.33
2023-11-09T14:50:20.149Z,2.85
2023-11-09T14:53:33.749Z,3.65
2023-11-09T14:56:42.792Z,2.58
2023-11-09T14:59:46.017Z,3.92
2023-11-09T15:02:49.342Z,4.82
2023-11-09T15:05:54.542Z,3.28
2023-11-09T15:09:03.401Z,3.30
2023-11-09T15:12:06.965Z,24.50
2023-11-09T15:15:14.635Z,10.07
2023-11-09T15:18:17.043Z,4.30
2023-11-09T15:21:22.447Z,2.05
2023-11-09T15:24:24.980Z,3.30
2023-11-09T15:27:29.905Z,3.10
2023-11-09T15:30:33.278Z,3.58
2023-11-09T15:33:36.306Z,2.45
2023-11-09T15:36:38.350Z,5.15
2023-11-09T15:40:12.158Z,3.20
2023-11-09T15:43:05.059Z,4.28
2023-11-09T15:46:13.484Z,5.15
2023-11-09T15:49:15.781Z,4.80
2023-11-09T15:52:17.594Z,7.25
2023-11-09T15:55:21.665Z,6.22
2023-11-09T15:58:26.295Z,3.63
2023-11-09T16:01:29.628Z,2.90
2023-11-09T16:04:33.150Z,4.00
2023-11-09T16:07:35.056Z,4.45
2023-11-09T16:10:37.639Z,4.20
2023-11-09T16:13:42.044Z,5.68
2023-11-09T16:16:45.435Z,3.78
2023-11-09T16:19:47.584Z,4.47
2023-11-09T16:22:50.415Z,3.65
2023-11-09T16:25:52.777Z,2.72
2023-11-09T16:28:59.768Z,6.70
2023-11-09T16:32:03.305Z,5.15
2023-11-09T16:35:07.348Z,3.95
2023-11-09T16:38:12.753Z,4.35
2023-11-09T16:41:14.928Z,4.55
2023-11-09T16:44:17.658Z,5.95
2023-11-09T16:47:20.858Z,5.80
2023-11-09T16:50:22.837Z,7.93
2023-11-09T16:53:25.609Z,4.43
2023-11-09T16:56:27.479Z,5.30
2023-11-09T16:59:29.836Z,5.03
2023-11-09T17:02:34.219Z,5.22
2023-11-09T17:05:36.224Z,5.93
2023-11-09T17:08:39.092Z,6.13
2023-11-09T17:11:40.976Z,4.88
2023-11-09T17:14:42.900Z,4.25
2023-11-09T17:17:48.478Z,7.32
2023-11-09T17:20:50.395Z,6.75
2023-11-09T17:23:53.081Z,4.10
2023-11-09T17:26:56.162Z,4.65
2023-11-09T17:29:59.432Z,6.05
2023-11-09T17:33:03.126Z,4.25
2023-11-09T17:36:07.456Z,6.63
2023-11-09T17:39:09.897Z,3.90
2023-11-09T17:42:13.200Z,5.35
2023-11-09T17:45:16.717Z,4.63
2023-11-09T17:48:21.150Z,4.18
2023-11-09T17:51:24.492Z,4.70
2023-11-09T17:54:28.013Z,4.97
2023-11-09T17:57:31.504Z,4.38
2023-11-09T18:00:35.375Z,4.05
2023-11-09T18:03:40.095Z,5.93
2023-11-09T18:06:44.737Z,4.60
2023-11-09T18:09:48.154Z,6.47
2023-11-09T18:12:51.442Z,5.07
2023-11-09T18:15:54.222Z,7.55
2023-11-09T18:19:02.190Z,4.97
2023-11-09T18:22:07.537Z,6.00
2023-11-09T18:25:12.349Z,4.93
2023-11-09T18:28:14.807Z,5.32
2023-11-09T18:31:19.373Z,4.63
2023-11-09T18:34:22.954Z,5.03
2023-11-09T18:37:25.321Z,6.03
2023-11-09T18:40:29.760Z,5.80
2023-11-09T18:43:33.623Z,5.65
2023-11-09T18:46:38.647Z,5.10
2023-11-09T18:52:50.566Z,7.57
2023-11-09T18:55:53.940Z,11.02
2023-11-09T18:58:58.218Z,8.50
2023-11-09T19:02:01.497Z,8.15
2023-11-09T19:05:10.503Z,8.38
2023-11-09T19:08:17.809Z,10.52
2023-11-09T19:11:22.899Z,6.78
2023-11-09T19:14:27.908Z,5.57
2023-11-09T19:17:37.827Z,10.90
2023-11-09T19:23:57.217Z,7.50
2023-11-09T19:27:02.678Z,8.48
2023-11-09T19:30:11.285Z,6.78
2023-11-09T19:33:14.717Z,6.70
2023-11-09T19:36:20.092Z,7.70
2023-11-09T19:39:25.760Z,6.50
2023-11-09T19:42:32.112Z,7.40
2023-11-09T19:45:35.424Z,13.10
2023-11-09T19:48:40.061Z,10.05
2023-11-09T19:51:47.385Z,7.97
2023-11-09T19:54:54.296Z,8.45
2023-11-09T19:57:59.175Z,10.90
2023-11-09T20:01:03.252Z,9.55
2023-11-09T20:04:09.877Z,9.02
2023-11-09T20:07:16.380Z,7.60
2023-11-09T20:10:20.104Z,10.98
2023-11-09T20:13:25.621Z,7.88
2023-11-09T20:16:29.327Z,8.18
2023-11-09T20:19:36.483Z,8.55
2023-11-09T20:22:42.214Z,9.75
2023-11-09T20:25:45.924Z,10.55
2023-11-09T20:28:52.432Z,9.00
2023-11-09T20:31:56.529Z,9.48
2023-11-09T20:35:00.969Z,9.93
2023-11-09T20:38:08.976Z,10.13
2023-11-09T20:41:12.885Z,9.00
2023-11-09T20:44:20.422Z,8.82
2023-11-09T20:47:24.335Z,8.90
2023-11-09T20:50:30.201Z,9.18
2023-11-09T20:53:35.206Z,11.50
2023-11-09T20:56:38.900Z,8.38
2023-11-09T20:59:41.869Z,12.10
2023-11-09T21:02:43.813Z,10.68
2023-11-09T21:05:46.511Z,5.95
2023-11-09T21:08:51.875Z,7.85
2023-11-09T21:11:56.322Z,10.45
2023-11-09T21:15:06.341Z,8.10
2023-11-09T21:18:08.794Z,7.32
2023-11-09T21:21:11.016Z,6.18
2023-11-09T21:24:14.554Z,7.97
2023-11-09T21:27:18.281Z,7.03
2023-11-09T21:30:21.190Z,7.18
2023-11-09T21:33:23.365Z,10.15
2023-11-09T21:36:25.519Z,8.52
2023-11-09T21:39:28.968Z,7.65
2023-11-09T21:42:30.956Z,9.73
2023-11-09T21:45:32.849Z,8.02
2023-11-09T21:48:34.845Z,9.15
2023-11-09T21:51:42.060Z,8.75
2023-11-09T21:54:45.804Z,8.02
2023-11-09T21:57:48.029Z,6.97
2023-11-09T22:00:53.252Z,9.80
2023-11-09T22:03:55.177Z,9.68
2023-11-09T22:06:58.064Z,8.98
2023-11-09T22:10:01.834Z,10.45
2023-11-09T22:13:04.850Z,8.45
2023-11-09T22:16:11.353Z,9.50
2023-11-09T22:19:13.338Z,7.35
2023-11-09T22:22:16.379Z,7.68
2023-11-09T22:25:20.393Z,8.95
2023-11-09T22:28:22.434Z,9.48
2023-11-09T22:31:24.822Z,8.65
2023-11-09T22:34:26.699Z,7.72
2023-11-09T22:37:28.585Z,9.48
2023-11-09T22:40:31.772Z,12.05
2023-11-09T22:43:33.840Z,9.82
2023-11-09T22:46:42.462Z,10.40
2023-11-09T22:49:44.722Z,7.47
2023-11-09T22:52:47.889Z,11.00
2023-11-09T22:55:52.156Z,9.70
2023-11-09T22:58:53.930Z,10.38
2023-11-09T23:01:56.723Z,10.65
2023-11-09T23:04:58.571Z,9.73
2023-11-09T23:08:00.347Z,10.45
2023-11-09T23:11:05.075Z,9.65
2023-11-09T23:14:08.296Z,15.57
2023-11-09T23:17:10.585Z,11.98
2023-11-09T23:20:13.485Z,10.43
2023-11-09T23:23:15.594Z,10.43
2023-11-09T23:26:18.775Z,9.65
2023-11-09T23:29:21.596Z,10.25
2023-11-09T23:32:23.605Z,11.57
2023-11-09T23:35:25.417Z,12.10
2023-11-09T23:38:27.609Z,9.45
2023-11-09T23:41:30.770Z,8.63
2023-11-09T23:44:32.576Z,10.55
2023-11-09T23:47:38.126Z,8.63
2023-11-09T23:50:40.022Z,12.85
2023-11-09T23:53:42.526Z,11.25
2023-11-09T23:56:45.703Z,10.75
2023-11-09T23:59:47.973Z,12.15
